createdAt,value
2022-10-05T00:01:52.927Z,95.13
2022-10-05T00:04:23.111Z,95.60
2022-10-05T00:06:59.032Z,96.45
2022-10-05T00:09:27.054Z,96.33
2022-10-05T00:11:55.046Z,96.14
2022-10-05T00:14:28.141Z,97.15
2022-10-05T00:16:56.818Z,97.12
2022-10-05T00:19:30.145Z,97.14
2022-10-05T00:22:00.367Z,97.32
2022-10-05T00:24:28.298Z,97.52
2022-10-05T00:26:58.247Z,97.61
2022-10-05T00:29:26.346Z,97.94
2022-10-05T00:31:54.318Z,97.65
2022-10-05T00:34:22.296Z,97.49
2022-10-05T00:36:50.247Z,97.66
2022-10-05T00:39:20.850Z,97.92
2022-10-05T00:42:08.500Z,97.70
2022-10-05T00:44:43.015Z,98.62
2022-10-05T00:47:28.601Z,99.32
2022-10-05T00:50:28.766Z,99.86
2022-10-05T00:53:06.282Z,99.97
2022-10-05T00:55:51.296Z,100.00
2022-10-05T00:58:29.240Z,98.87
2022-10-05T01:01:07.594Z,98.18
2022-10-05T01:03:45.171Z,98.08
2022-10-05T01:06:23.677Z,97.95
2022-10-05T01:08:59.574Z,98.38
2022-10-05T01:11:35.389Z,97.46
2022-10-05T01:14:13.492Z,97.14
2022-10-05T01:16:47.906Z,96.05
2022-10-05T01:19:33.696Z,95.84
2022-10-05T01:22:10.268Z,95.83
2022-10-05T01:24:51.134Z,95.94
2022-10-05T01:27:48.344Z,94.58
2022-10-05T01:30:18.810Z,94.39
2022-10-05T01:32:53.110Z,94.82
2022-10-05T01:35:38.102Z,94.75
2022-10-05T01:38:21.278Z,95.32
2022-10-05T01:40:59.159Z,95.97
2022-10-05T01:43:37.101Z,95.61
2022-10-05T01:46:15.833Z,96.17
2022-10-05T01:48:54.103Z,96.41
2022-10-05T01:51:31.997Z,95.96
2022-10-05T01:54:11.627Z,96.12
2022-10-05T01:56:43.186Z,95.73
2022-10-05T01:59:23.451Z,96.03
2022-10-05T02:01:59.774Z,96.19
2022-10-05T02:07:24.886Z,96.68
2022-10-05T02:09:59.586Z,96.89
2022-10-05T02:12:32.150Z,96.09
2022-10-05T02:15:09.435Z,94.99
2022-10-05T02:17:43.052Z,95.46
2022-10-05T02:20:16.066Z,95.63
2022-10-05T02:22:48.419Z,94.94
2022-10-05T02:25:20.806Z,94.99
2022-10-05T02:27:54.927Z,94.79
2022-10-05T02:30:24.423Z,94.86
2022-10-05T02:32:57.215Z,94.95
2022-10-05T02:35:25.147Z,95.53
2022-10-05T02:38:07.459Z,94.71
2022-10-05T02:40:46.813Z,95.05
2022-10-05T02:43:24.666Z,94.74
2022-10-05T02:46:03.119Z,93.92
2022-10-05T02:48:41.213Z,94.11
2022-10-05T02:51:21.467Z,94.46
2022-10-05T02:54:00.399Z,94.06
2022-10-05T02:56:36.856Z,93.86
2022-10-05T02:59:12.319Z,94.40
2022-10-05T03:01:49.303Z,93.83
2022-10-05T03:04:27.220Z,94.43
2022-10-05T03:07:04.783Z,94.13
2022-10-05T03:09:44.882Z,95.06
2022-10-05T03:12:26.115Z,94.33
2022-10-05T03:15:05.145Z,94.34
2022-10-05T03:17:44.024Z,95.04
2022-10-05T03:20:26.562Z,94.79
2022-10-05T03:22:58.719Z,94.03
2022-10-05T03:25:46.537Z,94.16
2022-10-05T03:28:20.533Z,94.91
2022-10-05T03:30:57.399Z,94.32
2022-10-05T03:33:34.453Z,93.94
2022-10-05T03:36:10.925Z,93.78
2022-10-05T03:38:46.078Z,94.35
2022-10-05T03:41:19.185Z,94.16
2022-10-05T03:44:32.871Z,94.82
2022-10-05T03:47:09.890Z,94.75
2022-10-05T03:49:51.077Z,95.32
2022-10-05T03:52:24.362Z,95.19
2022-10-05T03:54:57.505Z,95.90
2022-10-05T03:57:29.171Z,94.98
2022-10-05T04:00:04.457Z,95.58
2022-10-05T04:02:35.816Z,95.03
2022-10-05T04:05:15.670Z,93.82
2022-10-05T04:07:47.542Z,94.64
2022-10-05T04:10:21.669Z,93.86
2022-10-05T04:12:52.697Z,94.06
2022-10-05T04:15:31.085Z,93.57
2022-10-05T04:18:04.545Z,94.58
2022-10-05T04:20:42.191Z,94.57
2022-10-05T04:23:20.438Z,94.24
2022-10-05T04:25:51.596Z,94.55
2022-10-05T04:28:31.190Z,94.09
2022-10-05T04:31:03.934Z,93.56
2022-10-05T04:33:33.158Z,93.59
2022-10-05T04:36:14.886Z,93.30
2022-10-05T04:38:52.476Z,94.41
2022-10-05T04:41:35.223Z,95.54
2022-10-05T04:44:19.875Z,95.60
2022-10-05T04:47:05.302Z,95.91
2022-10-05T04:49:49.651Z,95.58
2022-10-05T04:52:26.143Z,95.67
2022-10-05T04:55:10.160Z,95.63
2022-10-05T04:57:47.346Z,96.53
2022-10-05T05:00:23.737Z,96.98
2022-10-05T05:03:05.496Z,96.47
2022-10-05T05:06:05.080Z,96.81
2022-10-05T05:08:46.717Z,97.09
2022-10-05T05:11:28.244Z,98.29
2022-10-05T05:14:23.920Z,98.67
2022-10-05T05:16:59.863Z,98.72
2022-10-05T05:19:42.583Z,99.21
2022-10-05T05:22:21.408Z,99.69
2022-10-05T05:25:04.670Z,99.82
2022-10-05T05:27:44.479Z,100.00
2022-10-05T05:30:22.552Z,100.00
2022-10-05T05:33:16.063Z,100.00
2022-10-05T05:36:05.272Z,100.00
2022-10-05T05:38:37.262Z,100.00
2022-10-05T05:41:11.431Z,100.00
2022-10-05T05:43:49.394Z,100.00
2022-10-05T05:46:38.839Z,100.00
2022-10-05T05:49:17.170Z,100.00
2022-10-05T05:51:51.214Z,100.00
2022-10-05T05:54:27.977Z,100.00
2022-10-05T05:57:08.153Z,100.00
2022-10-05T05:59:53.387Z,98.96
2022-10-05T06:02:24.796Z,99.16
2022-10-05T06:04:58.181Z,98.95
2022-10-05T06:07:31.092Z,97.34
2022-10-05T06:10:05.952Z,94.55
2022-10-05T06:12:41.038Z,94.52
2022-10-05T06:15:28.550Z,94.09
2022-10-05T06:18:00.740Z,91.89
2022-10-05T06:20:34.786Z,90.79
2022-10-05T06:23:06.083Z,90.44
2022-10-05T06:25:44.454Z,89.98
2022-10-05T06:28:16.237Z,84.81
2022-10-05T06:30:53.358Z,87.12
2022-10-05T06:33:40.241Z,84.82
2022-10-05T06:36:18.773Z,85.70
2022-10-05T06:39:09.194Z,84.01
2022-10-05T06:41:47.970Z,85.06
2022-10-05T06:44:21.519Z,84.24
2022-10-05T06:47:01.278Z,83.48
2022-10-05T06:49:35.096Z,83.87
2022-10-05T06:52:13.904Z,80.50
2022-10-05T06:54:53.354Z,76.94
2022-10-05T06:57:41.374Z,79.50
2022-10-05T07:00:19.359Z,76.11
2022-10-05T07:02:55.024Z,77.41
2022-10-05T07:05:48.685Z,75.36
2022-10-05T07:08:25.483Z,79.27
2022-10-05T07:11:05.614Z,76.82
2022-10-05T07:13:59.236Z,77.35
2022-10-05T07:16:40.426Z,73.91
2022-10-05T07:19:28.735Z,74.61
2022-10-05T07:22:10.680Z,74.85
2022-10-05T07:24:43.654Z,71.30
2022-10-05T07:27:17.023Z,72.01
2022-10-05T07:29:52.090Z,69.93
2022-10-05T07:32:34.422Z,68.02
2022-10-05T07:35:30.984Z,71.05
2022-10-05T07:38:03.582Z,68.51
2022-10-05T07:40:39.341Z,68.74
2022-10-05T07:43:19.845Z,66.09
2022-10-05T07:45:53.267Z,67.19
2022-10-05T07:48:26.775Z,66.42
2022-10-05T07:51:01.038Z,66.21
2022-10-05T07:53:36.135Z,65.14
2022-10-05T07:56:10.856Z,62.49
2022-10-05T07:58:44.592Z,63.66
2022-10-05T08:01:19.321Z,62.23
2022-10-05T08:03:59.938Z,62.73
2022-10-05T08:06:41.474Z,63.86
2022-10-05T08:09:22.496Z,64.58
2022-10-05T08:11:58.863Z,63.05
2022-10-05T08:14:33.819Z,59.55
2022-10-05T08:17:06.938Z,57.41
2022-10-05T08:19:44.497Z,57.78
2022-10-05T08:22:19.539Z,57.53
2022-10-05T08:24:54.555Z,63.94
2022-10-05T08:27:27.841Z,59.91
2022-10-05T08:30:01.457Z,58.16
2022-10-05T08:32:36.019Z,56.31
2022-10-05T08:35:19.001Z,54.66
2022-10-05T08:37:48.990Z,54.07
2022-10-05T08:40:39.649Z,55.88
2022-10-05T08:43:19.962Z,52.65
2022-10-05T08:46:18.710Z,55.69
2022-10-05T08:49:35.026Z,59.20
2022-10-05T08:52:23.710Z,56.06
2022-10-05T08:55:28.398Z,53.38
2022-10-05T08:58:05.279Z,53.90
2022-10-05T09:00:47.111Z,56.81
2022-10-05T09:03:43.089Z,54.26
2022-10-05T09:06:46.507Z,53.88
2022-10-05T09:09:42.208Z,49.69
2022-10-05T09:12:37.550Z,51.35
2022-10-05T09:15:26.018Z,48.26
2022-10-05T09:18:25.047Z,51.15
2022-10-05T09:20:54.388Z,50.43
2022-10-05T09:23:39.391Z,52.23
2022-10-05T09:26:43.071Z,50.62
2022-10-05T09:29:38.071Z,49.75
2022-10-05T09:32:33.069Z,50.28
2022-10-05T09:35:15.153Z,49.47
2022-10-05T09:38:07.198Z,47.04
2022-10-05T09:41:20.150Z,49.49
2022-10-05T09:44:37.367Z,48.95
2022-10-05T09:47:34.846Z,47.51
2022-10-05T09:50:44.434Z,46.66
2022-10-05T09:53:43.278Z,47.08
2022-10-05T09:56:50.084Z,47.13
2022-10-05T09:59:51.707Z,47.10
2022-10-05T10:02:52.543Z,49.77
2022-10-05T10:05:40.835Z,47.80
2022-10-05T10:08:20.315Z,47.79
2022-10-05T10:11:08.014Z,45.77
2022-10-05T10:13:55.878Z,49.57
2022-10-05T10:16:39.020Z,48.31
2022-10-05T10:19:32.203Z,49.25
2022-10-05T10:22:44.910Z,46.80
2022-10-05T10:25:25.837Z,51.22
2022-10-05T10:28:16.336Z,49.97
2022-10-05T10:31:01.268Z,50.97
2022-10-05T10:34:10.251Z,52.26
2022-10-05T10:37:08.399Z,47.98
2022-10-05T10:39:54.477Z,48.18
2022-10-05T10:42:37.635Z,49.85
2022-10-05T10:45:21.203Z,49.54
2022-10-05T10:48:00.392Z,48.78
2022-10-05T10:51:14.925Z,47.85
2022-10-05T10:54:12.291Z,48.90
2022-10-05T10:56:58.168Z,47.81
2022-10-05T11:00:04.110Z,48.10
2022-10-05T11:03:01.228Z,48.91
2022-10-05T11:06:07.657Z,47.69
2022-10-05T11:09:09.759Z,48.34
2022-10-05T11:12:02.501Z,44.88
2022-10-05T11:14:46.577Z,51.28
2022-10-05T11:17:20.995Z,49.96
2022-10-05T11:20:04.740Z,51.37
2022-10-05T11:23:05.859Z,51.61
2022-10-05T11:25:55.101Z,49.17
2022-10-05T11:29:13.709Z,53.22
2022-10-05T11:32:07.173Z,53.22
2022-10-05T11:35:13.650Z,53.61
2022-10-05T11:37:58.543Z,54.59
2022-10-05T11:40:47.708Z,55.76
2022-10-05T11:43:43.302Z,53.11
2022-10-05T11:46:18.173Z,53.43
2022-10-05T11:49:03.675Z,52.66
2022-10-05T11:51:43.585Z,54.90
2022-10-05T11:54:25.209Z,51.65
2022-10-05T11:56:58.399Z,51.19
2022-10-05T11:59:34.589Z,54.64
2022-10-05T12:02:14.037Z,55.67
2022-10-05T12:04:53.255Z,51.68
2022-10-05T12:07:28.810Z,51.02
2022-10-05T12:10:17.403Z,50.15
2022-10-05T12:12:59.111Z,50.72
2022-10-05T12:15:32.492Z,49.41
2022-10-05T12:18:08.383Z,49.68
2022-10-05T12:20:46.035Z,49.10
2022-10-05T12:23:19.259Z,48.67
2022-10-05T12:25:51.638Z,49.04
2022-10-05T12:28:27.174Z,47.86
2022-10-05T12:31:23.696Z,45.25
2022-10-05T12:34:02.961Z,48.33
2022-10-05T12:37:02.437Z,46.38
2022-10-05T12:39:36.230Z,47.64
2022-10-05T12:42:15.855Z,46.71
2022-10-05T12:45:07.869Z,47.36
2022-10-05T12:47:53.754Z,47.38
2022-10-05T12:50:28.781Z,45.76
2022-10-05T12:53:14.947Z,45.70
2022-10-05T12:55:49.977Z,48.97
2022-10-05T12:58:30.414Z,50.67
2022-10-05T13:01:11.079Z,49.38
2022-10-05T13:03:45.753Z,46.82
2022-10-05T13:06:22.070Z,49.93
2022-10-05T13:08:55.993Z,50.86
2022-10-05T13:11:33.585Z,48.53
2022-10-05T13:14:16.554Z,49.47
2022-10-05T13:16:55.164Z,50.80
2022-10-05T13:19:39.267Z,52.63
2022-10-05T13:22:28.546Z,54.10
2022-10-05T13:25:10.098Z,50.63
2022-10-05T13:27:45.062Z,51.54
2022-10-05T13:30:15.804Z,47.34
2022-10-05T13:32:48.090Z,50.32
2022-10-05T13:35:44.426Z,49.21
2022-10-05T13:38:25.678Z,46.65
2022-10-05T13:41:03.453Z,46.60
2022-10-05T13:43:44.775Z,51.65
2022-10-05T13:46:22.168Z,52.18
2022-10-05T13:49:04.353Z,53.02
2022-10-05T13:51:42.251Z,52.00
2022-10-05T13:54:18.657Z,53.13
2022-10-05T13:56:50.126Z,53.90
2022-10-05T13:59:28.950Z,56.42
2022-10-05T14:01:59.990Z,57.46
2022-10-05T14:04:31.249Z,57.77
2022-10-05T14:07:21.802Z,62.04
2022-10-05T14:09:51.081Z,56.18
2022-10-05T14:12:23.346Z,55.61
2022-10-05T14:14:53.113Z,55.31
2022-10-05T14:17:38.240Z,55.81
2022-10-05T14:20:25.031Z,54.31
2022-10-05T14:22:59.462Z,54.33
2022-10-05T14:25:29.053Z,54.73
2022-10-05T14:28:01.954Z,55.82
2022-10-05T14:30:31.090Z,56.94
2022-10-05T14:33:14.007Z,55.45
2022-10-05T14:35:50.635Z,55.48
2022-10-05T14:38:23.087Z,54.03
2022-10-05T14:41:17.328Z,54.45
2022-10-05T14:43:53.972Z,55.19
2022-10-05T14:46:28.308Z,55.59
2022-10-05T14:49:19.366Z,56.26
2022-10-05T14:51:47.269Z,57.53
2022-10-05T14:54:27.818Z,57.73
2022-10-05T14:57:08.506Z,57.85
2022-10-05T15:00:01.170Z,57.23
2022-10-05T15:03:04.561Z,57.99
2022-10-05T15:05:36.611Z,59.50
2022-10-05T15:08:21.246Z,60.94
2022-10-05T15:10:57.854Z,61.83
2022-10-05T15:13:32.262Z,61.30
2022-10-05T15:16:05.848Z,61.79
2022-10-05T15:18:39.568Z,62.66
2022-10-05T15:21:54.552Z,63.95
2022-10-05T15:24:26.471Z,64.87
2022-10-05T15:26:58.211Z,65.84
2022-10-05T15:29:41.987Z,65.57
2022-10-05T15:32:22.732Z,65.78
2022-10-05T15:35:06.680Z,67.35
2022-10-05T15:37:43.183Z,67.40
2022-10-05T15:40:22.975Z,67.94
2022-10-05T15:42:54.713Z,68.69
2022-10-05T15:45:32.441Z,69.89
2022-10-05T15:48:04.274Z,70.57
2022-10-05T15:50:38.801Z,70.65
2022-10-05T15:53:16.696Z,71.09
2022-10-05T15:55:51.983Z,71.83
2022-10-05T15:58:39.503Z,72.24
2022-10-05T16:01:12.648Z,72.29
2022-10-05T16:03:53.498Z,72.83
2022-10-05T16:06:56.730Z,72.86
2022-10-05T16:09:47.270Z,73.32
2022-10-05T16:12:23.501Z,73.26
2022-10-05T16:15:03.107Z,74.06
2022-10-05T16:17:51.092Z,74.74
2022-10-05T16:20:29.966Z,75.19
2022-10-05T16:23:06.447Z,75.93
2022-10-05T16:25:46.373Z,75.84
2022-10-05T16:28:25.359Z,75.60
2022-10-05T16:31:09.626Z,74.96
2022-10-05T16:33:55.234Z,75.59
2022-10-05T16:36:33.498Z,76.29
2022-10-05T16:39:07.636Z,76.52
2022-10-05T16:41:44.916Z,76.72
2022-10-05T16:44:23.295Z,76.79
2022-10-05T16:46:59.200Z,77.28
2022-10-05T16:49:36.991Z,77.59
2022-10-05T16:52:07.151Z,77.77
2022-10-05T16:54:45.416Z,77.82
2022-10-05T16:57:21.176Z,77.90
2022-10-05T17:00:13.434Z,78.01
2022-10-05T17:03:02.451Z,77.71
2022-10-05T17:05:45.349Z,78.36
2022-10-05T17:08:46.053Z,78.81
2022-10-05T17:11:28.605Z,78.93
2022-10-05T17:14:17.933Z,78.91
2022-10-05T17:16:58.914Z,78.92
2022-10-05T17:19:40.675Z,78.92
2022-10-05T17:22:13.872Z,79.23
2022-10-05T17:24:53.202Z,79.63
2022-10-05T17:27:30.414Z,80.00
2022-10-05T17:30:38.756Z,79.75
2022-10-05T17:33:25.966Z,79.66
2022-10-05T17:36:12.529Z,79.70
2022-10-05T17:38:52.150Z,79.86
2022-10-05T17:41:25.624Z,80.38
2022-10-05T17:44:33.081Z,80.93
2022-10-05T17:47:04.037Z,81.04
2022-10-05T17:50:16.273Z,80.90
2022-10-05T17:53:03.936Z,81.33
2022-10-05T17:56:03.372Z,81.74
2022-10-05T17:59:03.511Z,82.40
2022-10-05T18:01:36.495Z,82.91
2022-10-05T18:04:24.050Z,82.01
2022-10-05T18:07:02.460Z,82.35
2022-10-05T18:09:36.294Z,84.01
2022-10-05T18:12:39.918Z,84.90
2022-10-05T18:15:48.594Z,85.70
2022-10-05T18:18:58.809Z,85.45
2022-10-05T18:21:34.354Z,84.54
2022-10-05T18:24:21.547Z,84.67
2022-10-05T18:26:59.701Z,83.97
2022-10-05T18:30:05.311Z,83.80
2022-10-05T18:33:08.830Z,84.47
2022-10-05T18:35:50.374Z,85.39
2022-10-05T18:38:32.283Z,87.29
2022-10-05T18:41:09.214Z,87.66
2022-10-05T18:43:43.398Z,88.49
2022-10-05T18:46:17.642Z,89.22
2022-10-05T18:48:55.922Z,89.14
2022-10-05T18:51:31.496Z,88.89
2022-10-05T18:54:13.073Z,89.78
2022-10-05T18:56:46.361Z,89.00
2022-10-05T18:59:38.183Z,89.08
2022-10-05T19:02:24.601Z,89.65
2022-10-05T19:05:02.925Z,88.40
2022-10-05T19:07:44.893Z,88.05
2022-10-05T19:10:21.398Z,87.93
2022-10-05T19:13:11.926Z,87.47
2022-10-05T19:15:51.472Z,88.29
2022-10-05T19:18:42.887Z,89.16
2022-10-05T19:21:24.691Z,89.09
2022-10-05T19:24:12.475Z,88.52
2022-10-05T19:26:57.818Z,88.05
2022-10-05T19:29:37.813Z,87.53
2022-10-05T19:32:18.586Z,87.28
2022-10-05T19:35:07.160Z,86.67
2022-10-05T19:37:48.021Z,86.43
2022-10-05T19:40:24.482Z,84.70
2022-10-05T19:43:15.825Z,85.10
2022-10-05T19:45:54.441Z,84.65
2022-10-05T19:48:34.312Z,84.43
2022-10-05T19:51:03.595Z,84.43
2022-10-05T19:53:36.288Z,83.77
2022-10-05T19:56:18.066Z,83.58
2022-10-05T19:58:45.973Z,83.63
2022-10-05T20:01:26.084Z,82.95
2022-10-05T20:03:58.031Z,83.21
2022-10-05T20:06:27.046Z,82.52
2022-10-05T20:09:00.057Z,81.88
2022-10-05T20:11:29.413Z,81.71
2022-10-05T20:14:20.936Z,81.22
2022-10-05T20:17:06.268Z,82.06
2022-10-05T20:19:57.432Z,82.07
2022-10-05T20:22:32.841Z,81.87
2022-10-05T20:25:02.407Z,81.29
2022-10-05T20:27:55.550Z,81.39
2022-10-05T20:30:25.274Z,81.29
2022-10-05T20:32:57.630Z,81.67
2022-10-05T20:35:30.566Z,81.77
2022-10-05T20:37:59.481Z,82.04
2022-10-05T20:40:27.672Z,81.64
2022-10-05T20:42:55.626Z,81.96
2022-10-05T20:45:23.766Z,82.17
2022-10-05T20:47:51.677Z,82.82
2022-10-05T20:50:21.162Z,82.65
2022-10-05T20:52:50.485Z,82.48
2022-10-05T20:55:18.592Z,82.99
2022-10-05T20:57:47.430Z,82.66
2022-10-05T21:00:15.547Z,82.88
2022-10-05T21:02:43.471Z,81.75
2022-10-05T21:05:11.474Z,81.80
2022-10-05T21:07:40.975Z,82.30
2022-10-05T21:10:11.014Z,82.60
2022-10-05T21:12:38.978Z,82.92
2022-10-05T21:15:07.961Z,83.22
2022-10-05T21:17:36.417Z,83.41
2022-10-05T21:20:04.659Z,83.28
2022-10-05T21:22:32.558Z,83.46
2022-10-05T21:25:00.473Z,83.13
2022-10-05T21:27:29.953Z,83.15
2022-10-05T21:29:57.867Z,83.29
2022-10-05T21:32:25.793Z,82.63
2022-10-05T21:34:53.702Z,83.14
2022-10-05T21:37:21.611Z,83.54
2022-10-05T21:39:49.532Z,84.03
2022-10-05T21:42:17.458Z,84.86
2022-10-05T21:44:46.757Z,84.64
2022-10-05T21:47:14.727Z,85.45
2022-10-05T21:49:43.245Z,85.41
2022-10-05T21:52:11.163Z,85.53
2022-10-05T21:54:39.123Z,85.63
2022-10-05T21:57:07.061Z,85.61
2022-10-05T21:59:35.864Z,85.50
2022-10-05T22:02:05.270Z,85.74
2022-10-05T22:04:33.199Z,85.90
2022-10-05T22:07:01.285Z,85.40
2022-10-05T22:09:29.266Z,86.00
2022-10-05T22:11:57.439Z,86.02
2022-10-05T22:14:25.470Z,86.59
2022-10-05T22:16:54.173Z,86.72
2022-10-05T22:19:23.585Z,86.29
2022-10-05T22:21:51.493Z,86.49
2022-10-05T22:24:19.726Z,86.44
2022-10-05T22:26:51.538Z,86.97
2022-10-05T22:29:21.278Z,86.68
2022-10-05T22:31:49.597Z,86.87
2022-10-05T22:34:18.317Z,87.21
2022-10-05T22:36:48.523Z,86.78
2022-10-05T22:39:17.119Z,86.96
2022-10-05T22:41:45.168Z,86.92
2022-10-05T22:44:13.078Z,87.11
2022-10-05T22:46:41.010Z,86.72
2022-10-05T22:49:08.911Z,87.21
2022-10-05T22:51:36.891Z,86.95
2022-10-05T22:54:06.566Z,87.40
2022-10-05T22:56:34.557Z,87.28
2022-10-05T22:59:02.482Z,86.66
2022-10-05T23:01:30.461Z,87.06
2022-10-05T23:03:58.454Z,87.39
2022-10-05T23:06:27.524Z,87.08
2022-10-05T23:08:55.982Z,87.58
2022-10-05T23:11:30.226Z,87.95
2022-10-05T23:13:59.960Z,87.94
2022-10-05T23:16:29.787Z,88.50
2022-10-05T23:18:58.497Z,88.13
2022-10-05T23:21:30.235Z,87.70
2022-10-05T23:23:58.226Z,88.58
2022-10-05T23:26:27.715Z,89.26
2022-10-05T23:28:55.694Z,89.12
2022-10-05T23:31:26.057Z,89.23
2022-10-05T23:33:54.345Z,89.31
2022-10-05T23:36:23.822Z,89.36
2022-10-05T23:38:52.192Z,89.46
2022-10-05T23:41:20.680Z,90.13
2022-10-05T23:43:50.273Z,89.57
2022-10-05T23:46:18.695Z,90.35
2022-10-05T23:48:46.681Z,90.65
2022-10-05T23:51:15.989Z,90.15
2022-10-05T23:53:44.637Z,90.09
2022-10-05T23:56:13.282Z,90.50
2022-10-05T23:58:41.758Z,90.37
